sensor_id;sensor_type;location;lat;lon;timestamp;temperature;humidity
63325;SHT31;49451;52.390;13.028;2022-12-18T05:03:11;-5.81;94.47
63325;SHT31;49451;52.390;13.028;2022-12-18T05:05:36;-5.79;95.13
63325;SHT31;49451;52.390;13.028;2022-12-18T05:08:02;-5.66;94.18
63325;SHT31;49451;52.390;13.028;2022-12-18T05:10:27;-5.40;93.90
63325;SHT31;49451;52.390;13.028;2022-12-18T05:12:52;-5.66;93.95
63325;SHT31;49451;52.390;13.028;2022-12-18T05:15:27;-5.67;95.05
63325;SHT31;49451;52.390;13.028;2022-12-18T05:17:52;-5.80;94.52
63325;SHT31;49451;52.390;13.028;2022-12-18T05:20:18;-5.69;94.71
63325;SHT31;49451;52.390;13.028;2022-12-18T05:22:43;-5.74;94.79
63325;SHT31;49451;52.390;13.028;2022-12-18T05:25:09;-5.58;94.86
63325;SHT31;49451;52.390;13.028;2022-12-18T05:27:34;-5.59;94.97
63325;SHT31;49451;52.390;13.028;2022-12-18T05:30:00;-5.40;94.81
63325;SHT31;49451;52.390;13.028;2022-12-18T05:32:25;-5.79;95.88
63325;SHT31;49451;52.390;13.028;2022-12-18T05:34:50;-5.76;95.84
63325;SHT31;49451;52.390;13.028;2022-12-18T05:37:16;-5.33;95.46
63325;SHT31;49451;52.390;13.028;2022-12-18T05:39:42;-5.29;94.49
63325;SHT31;49451;52.390;13.028;2022-12-18T05:42:08;-5.63;96.18
63325;SHT31;49451;52.390;13.028;2022-12-18T05:44:33;-5.33;95.22
63325;SHT31;49451;52.390;13.028;2022-12-18T05:46:59;-5.43;95.33
63325;SHT31;49451;52.390;13.028;2022-12-18T05:49:24;-5.81;97.16
63325;SHT31;49451;52.390;13.028;2022-12-18T05:51:49;-5.63;97.44
63325;SHT31;49451;52.390;13.028;2022-12-18T05:54:15;-5.36;96.51
63325;SHT31;49451;52.390;13.028;2022-12-18T05:56:40;-5.64;96.34
63325;SHT31;49451;52.390;13.028;2022-12-18T05:59:06;-5.52;96.30
63325;SHT31;49451;52.390;13.028;2022-12-18T06:01:31;-5.71;97.18
63325;SHT31;49451;52.390;13.028;2022-12-18T06:03:56;-5.26;95.89
63325;SHT31;49451;52.390;13.028;2022-12-18T06:06:24;-5.36;96.18
63325;SHT31;49451;52.390;13.028;2022-12-18T06:08:50;-5.33;96.42
63325;SHT31;49451;52.390;13.028;2022-12-18T06:11:18;-5.07;95.42
63325;SHT31;49451;52.390;13.028;2022-12-18T06:13:45;-4.98;94.82
63325;SHT31;49451;52.390;13.028;2022-12-18T06:16:10;-5.38;95.87
63325;SHT31;49451;52.390;13.028;2022-12-18T06:18:36;-5.25;95.68
63325;SHT31;49451;52.390;13.028;2022-12-18T06:21:01;-5.14;95.14
63325;SHT31;49451;52.390;13.028;2022-12-18T06:23:27;-5.31;95.76
63325;SHT31;49451;52.390;13.028;2022-12-18T06:25:52;-5.24;96.00
63325;SHT31;49451;52.390;13.028;2022-12-18T06:28:18;-5.32;95.98
63325;SHT31;49451;52.390;13.028;2022-12-18T06:30:44;-5.25;96.61
63325;SHT31;49451;52.390;13.028;2022-12-18T06:33:10;-5.09;95.74
63325;SHT31;49451;52.390;13.028;2022-12-18T06:35:35;-5.25;96.20
63325;SHT31;49451;52.390;13.028;2022-12-18T06:38:01;-5.05;95.67
63325;SHT31;49451;52.390;13.028;2022-12-18T06:40:26;-5.00;95.59
63325;SHT31;49451;52.390;13.028;2022-12-18T06:42:52;-5.15;95.09
63325;SHT31;49451;52.390;13.028;2022-12-18T06:45:17;-5.18;95.89
63325;SHT31;49451;52.390;13.028;2022-12-18T06:47:42;-5.01;95.50
63325;SHT31;49451;52.390;13.028;2022-12-18T06:50:08;-5.18;95.95
63325;SHT31;49451;52.390;13.028;2022-12-18T06:52:33;-5.05;96.19
63325;SHT31;49451;52.390;13.028;2022-12-18T06:54:59;-5.09;95.89
63325;SHT31;49451;52.390;13.028;2022-12-18T06:57:25;-5.07;96.29
63325;SHT31;49451;52.390;13.028;2022-12-18T06:59:50;-4.98;95.57
63325;SHT31;49451;52.390;13.028;2022-12-18T07:02:15;-4.84;95.18
63325;SHT31;49451;52.390;13.028;2022-12-18T07:04:41;-4.74;95.40
63325;SHT31;49451;52.390;13.028;2022-12-18T07:07:06;-4.77;95.10
63325;SHT31;49451;52.390;13.028;2022-12-18T07:09:32;-5.07;95.61
63325;SHT31;49451;52.390;13.028;2022-12-18T07:11:57;-4.70;95.41
63325;SHT31;49451;52.390;13.028;2022-12-18T07:14:23;-4.93;95.26
63325;SHT31;49451;52.390;13.028;2022-12-18T07:16:48;-4.76;95.78
63325;SHT31;49451;52.390;13.028;2022-12-18T07:19:13;-4.88;95.81
63325;SHT31;49451;52.390;13.028;2022-12-18T07:21:39;-5.11;96.43
63325;SHT31;49451;52.390;13.028;2022-12-18T07:24:05;-5.03;96.04
63325;SHT31;49451;52.390;13.028;2022-12-18T07:26:30;-4.87;96.45
63325;SHT31;49451;52.390;13.028;2022-12-18T07:28:56;-4.77;96.12
63325;SHT31;49451;52.390;13.028;2022-12-18T07:31:23;-4.80;95.51
63325;SHT31;49451;52.390;13.028;2022-12-18T07:33:50;-4.86;95.80
63325;SHT31;49451;52.390;13.028;2022-12-18T07:36:16;-4.87;96.10
63325;SHT31;49451;52.390;13.028;2022-12-18T07:38:42;-4.95;96.18
63325;SHT31;49451;52.390;13.028;2022-12-18T07:41:12;-4.83;95.85
63325;SHT31;49451;52.390;13.028;2022-12-18T07:43:39;-4.60;95.73
63325;SHT31;49451;52.390;13.028;2022-12-18T07:46:06;-4.76;95.98
63325;SHT31;49451;52.390;13.028;2022-12-18T07:48:35;-4.97;96.26
63325;SHT31;49451;52.390;13.028;2022-12-18T07:51:01;-4.76;96.26
63325;SHT31;49451;52.390;13.028;2022-12-18T07:53:28;-4.73;96.16
63325;SHT31;49451;52.390;13.028;2022-12-18T07:55:58;-4.94;96.11
63325;SHT31;49451;52.390;13.028;2022-12-18T07:58:23;-4.84;96.30
63325;SHT31;49451;52.390;13.028;2022-12-18T08:00:49;-4.87;96.75
63325;SHT31;49451;52.390;13.028;2022-12-18T08:03:14;-4.76;96.52
63325;SHT31;49451;52.390;13.028;2022-12-18T08:05:40;-4.62;96.04
63325;SHT31;49451;52.390;13.028;2022-12-18T08:08:05;-4.63;95.79
63325;SHT31;49451;52.390;13.028;2022-12-18T08:10:31;-4.56;95.62
63325;SHT31;49451;52.390;13.028;2022-12-18T08:12:56;-4.62;95.72
63325;SHT31;49451;52.390;13.028;2022-12-18T08:15:22;-4.62;95.73
63325;SHT31;49451;52.390;13.028;2022-12-18T08:17:47;-4.48;95.46
63325;SHT31;49451;52.390;13.028;2022-12-18T08:20:13;-4.57;95.25
63325;SHT31;49451;52.390;13.028;2022-12-18T08:22:41;-4.55;95.63
63325;SHT31;49451;52.390;13.028;2022-12-18T08:25:06;-4.36;95.45
63325;SHT31;49451;52.390;13.028;2022-12-18T08:27:32;-4.33;95.05
63325;SHT31;49451;52.390;13.028;2022-12-18T08:29:57;-4.24;93.80
63325;SHT31;49451;52.390;13.028;2022-12-18T08:32:24;-4.42;94.31
63325;SHT31;49451;52.390;13.028;2022-12-18T08:34:49;-4.38;94.79
63325;SHT31;49451;52.390;13.028;2022-12-18T08:37:15;-4.56;94.78
63325;SHT31;49451;52.390;13.028;2022-12-18T08:39:40;-4.49;94.91
63325;SHT31;49451;52.390;13.028;2022-12-18T08:42:05;-4.42;94.69
63325;SHT31;49451;52.390;13.028;2022-12-18T08:44:49;-4.26;94.01
63325;SHT31;49451;52.390;13.028;2022-12-18T08:47:14;-4.33;94.10
63325;SHT31;49451;52.390;13.028;2022-12-18T08:49:42;-4.55;95.04
63325;SHT31;49451;52.390;13.028;2022-12-18T08:52:07;-4.55;94.68
63325;SHT31;49451;52.390;13.028;2022-12-18T08:54:49;-4.36;94.44
63325;SHT31;49451;52.390;13.028;2022-12-18T08:57:14;-4.59;94.91
63325;SHT31;49451;52.390;13.028;2022-12-18T08:59:40;-4.86;96.20
63325;SHT31;49451;52.390;13.028;2022-12-18T09:02:05;-4.76;95.62
63325;SHT31;49451;52.390;13.028;2022-12-18T09:04:31;-4.67;95.54
63325;SHT31;49451;52.390;13.028;2022-12-18T09:06:56;-4.50;94.72
63325;SHT31;49451;52.390;13.028;2022-12-18T09:09:21;-4.57;95.46
63325;SHT31;49451;52.390;13.028;2022-12-18T09:11:47;-4.79;95.85
63325;SHT31;49451;52.390;13.028;2022-12-18T09:14:12;-4.65;95.46
63325;SHT31;49451;52.390;13.028;2022-12-18T09:16:40;-4.55;95.08
63325;SHT31;49451;52.390;13.028;2022-12-18T09:19:11;-4.41;95.22
63325;SHT31;49451;52.390;13.028;2022-12-18T09:21:36;-4.25;94.16
63325;SHT31;49451;52.390;13.028;2022-12-18T09:24:12;-4.56;94.91
63325;SHT31;49451;52.390;13.028;2022-12-18T09:26:58;-4.63;95.12
63325;SHT31;49451;52.390;13.028;2022-12-18T09:29:26;-4.42;95.17
63325;SHT31;49451;52.390;13.028;2022-12-18T09:31:56;-4.32;94.83
63325;SHT31;49451;52.390;13.028;2022-12-18T09:34:26;-4.22;93.53
63325;SHT31;49451;52.390;13.028;2022-12-18T09:36:52;-4.38;93.84
63325;SHT31;49451;52.390;13.028;2022-12-18T09:39:18;-4.46;94.45
63325;SHT31;49451;52.390;13.028;2022-12-18T09:41:51;-4.32;93.48
63325;SHT31;49451;52.390;13.028;2022-12-18T09:44:36;-4.01;93.01
63325;SHT31;49451;52.390;13.028;2022-12-18T09:47:15;-4.28;93.74
63325;SHT31;49451;52.390;13.028;2022-12-18T09:49:49;-4.24;92.31
63325;SHT31;49451;52.390;13.028;2022-12-18T09:52:23;-4.19;93.22
63325;SHT31;49451;52.390;13.028;2022-12-18T09:54:58;-4.49;93.80
63325;SHT31;49451;52.390;13.028;2022-12-18T09:57:25;-4.30;93.40
63325;SHT31;49451;52.390;13.028;2022-12-18T10:00:03;-4.12;93.14
63325;SHT31;49451;52.390;13.028;2022-12-18T10:02:31;-4.39;93.57
63325;SHT31;49451;52.390;13.028;2022-12-18T10:05:17;-4.46;93.83
63325;SHT31;49451;52.390;13.028;2022-12-18T10:08:22;-4.14;93.24
63325;SHT31;49451;52.390;13.028;2022-12-18T10:10:57;-4.12;93.40
63325;SHT31;49451;52.390;13.028;2022-12-18T10:13:42;-4.21;92.50
63325;SHT31;49451;52.390;13.028;2022-12-18T10:19:20;-4.38;93.88
63325;SHT31;49451;52.390;13.028;2022-12-18T10:27:18;-4.22;93.45
63325;SHT31;49451;52.390;13.028;2022-12-18T10:29:47;-4.12;93.38
